createdAt,value
2023-01-11T00:01:40.215Z,6.65
2023-01-11T00:06:42.306Z,6.62
2023-01-11T00:11:43.825Z,6.59
2023-01-11T00:16:45.322Z,6.50
2023-01-11T00:21:49.321Z,6.41
2023-01-11T00:26:50.759Z,6.29
2023-01-11T00:31:53.467Z,6.15
2023-01-11T00:36:54.900Z,6.06
2023-01-11T00:42:15.152Z,5.95
2023-01-11T00:47:35.688Z,5.94
2023-01-11T00:52:37.117Z,5.74
2023-01-11T00:57:38.526Z,5.60
2023-01-11T01:02:40.271Z,5.61
2023-01-11T01:07:42.363Z,5.55
2023-01-11T01:13:03.332Z,5.60
2023-01-11T01:18:04.843Z,5.51
2023-01-11T01:23:06.309Z,5.45
2023-01-11T01:28:07.742Z,5.22
2023-01-11T01:33:09.205Z,5.23
2023-01-11T01:38:10.639Z,5.27
2023-01-11T01:43:15.902Z,5.21
2023-01-11T01:48:21.642Z,5.10
2023-01-11T01:53:29.313Z,5.07
2023-01-11T01:58:35.894Z,4.98
2023-01-11T02:03:37.323Z,4.87
2023-01-11T02:08:43.377Z,4.74
2023-01-11T02:13:46.135Z,4.73
2023-01-11T02:18:47.821Z,4.47
2023-01-11T02:24:11.133Z,4.33
2023-01-11T02:29:38.217Z,4.20
2023-01-11T02:34:53.678Z,4.24
2023-01-11T02:40:27.705Z,4.32
2023-01-11T02:45:54.179Z,3.90
2023-01-11T02:51:19.771Z,3.68
2023-01-11T02:56:25.390Z,3.73
2023-01-11T03:01:27.169Z,3.67
2023-01-11T03:06:33.060Z,3.42
2023-01-11T03:12:03.143Z,3.57
2023-01-11T03:17:42.650Z,3.63
2023-01-11T03:22:55.871Z,3.64
2023-01-11T03:28:14.918Z,3.60
2023-01-11T03:33:30.716Z,3.51
2023-01-11T03:38:55.811Z,3.43
2023-01-11T03:44:02.283Z,3.42
2023-01-11T03:49:16.585Z,3.22
2023-01-11T03:54:24.267Z,3.16
2023-01-11T03:59:26.273Z,2.92
2023-01-11T04:04:28.255Z,2.99
2023-01-11T04:09:29.668Z,2.93
2023-01-11T04:14:31.178Z,2.84
2023-01-11T04:19:32.610Z,2.99
2023-01-11T04:24:34.158Z,3.10
2023-01-11T04:29:35.579Z,3.02
2023-01-11T04:34:37.016Z,3.07
2023-01-11T04:39:39.008Z,3.11
2023-01-11T04:44:41.551Z,3.23
2023-01-11T04:49:43.804Z,3.06
2023-01-11T04:54:45.995Z,3.04
2023-01-11T04:59:47.528Z,3.25
2023-01-11T05:04:48.965Z,3.12
2023-01-11T05:09:50.398Z,3.17
2023-01-11T05:14:51.839Z,3.39
2023-01-11T05:19:53.294Z,3.42
2023-01-11T05:24:54.714Z,3.37
2023-01-11T05:29:56.178Z,3.15
2023-01-11T05:34:57.589Z,2.97
2023-01-11T05:39:59.001Z,2.90
2023-01-11T05:45:18.984Z,2.92
2023-01-11T05:50:20.565Z,3.00
2023-01-11T05:55:22.001Z,2.98
2023-01-11T06:00:23.877Z,2.99
2023-01-11T06:05:25.343Z,3.11
2023-01-11T06:10:26.850Z,3.14
2023-01-11T06:15:28.306Z,3.19
2023-01-11T06:20:29.789Z,3.14
2023-01-11T06:25:32.796Z,2.95
2023-01-11T06:30:34.378Z,2.80
2023-01-11T06:35:41.111Z,2.84
2023-01-11T06:40:43.152Z,2.96
2023-01-11T06:45:44.725Z,2.93
2023-01-11T06:50:54.099Z,2.96
2023-01-11T06:55:57.460Z,3.12
2023-01-11T07:00:59.084Z,3.18
2023-01-11T07:06:01.945Z,3.32
2023-01-11T07:11:04.062Z,3.29
2023-01-11T07:16:05.679Z,3.24
2023-01-11T07:21:07.156Z,3.50
2023-01-11T07:26:08.594Z,3.59
2023-01-11T07:31:10.156Z,3.68
2023-01-11T07:36:11.588Z,3.81
2023-01-11T07:41:31.850Z,3.76
2023-01-11T07:46:33.375Z,3.92
2023-01-11T07:51:34.932Z,4.18
2023-01-11T07:56:36.407Z,4.28
2023-01-11T08:01:37.860Z,4.47
2023-01-11T08:06:40.923Z,4.43
2023-01-11T08:12:00.622Z,4.69
2023-01-11T08:17:02.039Z,4.64
2023-01-11T08:22:03.609Z,4.59
2023-01-11T08:27:05.417Z,4.49
2023-01-11T08:32:06.931Z,4.71
2023-01-11T08:37:08.786Z,5.02
2023-01-11T08:42:10.218Z,5.17
2023-01-11T08:47:11.982Z,5.50
2023-01-11T08:52:14.297Z,5.72
2023-01-11T08:57:15.991Z,5.88
2023-01-11T09:02:17.769Z,5.87
2023-01-11T09:07:19.269Z,5.69
2023-01-11T09:12:20.802Z,5.88
2023-01-11T09:17:22.327Z,5.68
2023-01-11T09:22:23.824Z,5.79
2023-01-11T09:27:25.287Z,5.74
2023-01-11T09:32:26.780Z,5.55
2023-01-11T09:37:28.311Z,5.52
2023-01-11T09:42:39.450Z,5.53
2023-01-11T09:47:46.667Z,5.75
2023-01-11T09:52:54.775Z,5.82
2023-01-11T09:58:28.349Z,5.94
2023-01-11T10:03:51.726Z,5.89
2023-01-11T10:18:22.927Z,6.21
2023-01-11T10:20:12.514Z,6.45
2023-01-11T10:25:24.942Z,6.46
2023-01-11T10:30:32.317Z,6.35
2023-01-11T10:36:13.695Z,6.41
2023-01-11T10:41:29.902Z,6.49
2023-01-11T10:46:35.918Z,6.78
2023-01-11T10:51:41.894Z,6.83
2023-01-11T10:57:27.617Z,6.91
2023-01-11T11:02:53.896Z,7.13
2023-01-11T11:08:26.629Z,7.35
2023-01-11T11:13:43.556Z,7.51
2023-01-11T11:18:45.171Z,7.91
2023-01-11T11:23:50.409Z,7.50
2023-01-11T11:29:07.616Z,7.43
2023-01-11T11:34:15.443Z,7.50
2023-01-11T11:39:28.336Z,7.69
2023-01-11T11:44:29.825Z,7.50
2023-01-11T11:49:33.996Z,7.46
2023-01-11T11:54:53.501Z,7.38
2023-01-11T12:00:24.290Z,7.50
2023-01-11T12:05:26.220Z,7.53
2023-01-11T12:10:30.230Z,7.57
2023-01-11T12:15:34.303Z,7.52
2023-01-11T12:20:41.268Z,7.58
2023-01-11T12:26:11.353Z,7.55
2023-01-11T12:31:22.563Z,7.61
2023-01-11T12:36:29.400Z,7.65
2023-01-11T12:42:15.817Z,7.60
2023-01-11T12:47:41.122Z,7.73
2023-01-11T12:52:42.494Z,7.75
2023-01-11T12:58:00.342Z,7.74
2023-01-11T13:03:23.282Z,7.74
2023-01-11T13:08:53.322Z,7.69
2023-01-11T13:14:04.345Z,7.86
2023-01-11T13:19:25.724Z,7.70
2023-01-11T13:24:30.259Z,7.59
2023-01-11T13:29:36.821Z,7.54
2023-01-11T13:34:47.584Z,7.69
2023-01-11T13:39:57.493Z,7.59
2023-01-11T13:45:17.003Z,7.47
2023-01-11T13:50:24.917Z,7.30
2023-01-11T13:55:36.454Z,7.09
2023-01-11T14:01:13.255Z,7.26
2023-01-11T14:06:42.412Z,7.27
2023-01-11T14:11:58.313Z,7.22
2023-01-11T14:17:27.254Z,7.17
2023-01-11T14:22:38.754Z,7.24
2023-01-11T14:27:46.321Z,7.13
2023-01-11T14:33:06.604Z,7.09
2023-01-11T14:38:19.834Z,7.15
2023-01-11T14:43:36.129Z,6.96
2023-01-11T14:48:52.182Z,7.00
2023-01-11T14:53:58.853Z,6.98
2023-01-11T14:59:22.109Z,6.97
2023-01-11T15:04:23.560Z,6.96
2023-01-11T15:09:47.959Z,6.88
2023-01-11T15:14:54.467Z,6.84
2023-01-11T15:19:55.913Z,6.82
2023-01-11T15:25:06.961Z,6.73
2023-01-11T15:30:28.747Z,6.76
2023-01-11T15:35:32.992Z,6.74
2023-01-11T15:40:40.077Z,6.77
2023-01-11T15:46:13.238Z,6.64
2023-01-11T15:51:36.106Z,6.76
2023-01-11T15:56:53.058Z,6.74
2023-01-11T16:02:12.771Z,6.86
2023-01-11T16:07:25.476Z,6.75
2023-01-11T16:12:50.862Z,6.93
2023-01-11T16:17:53.360Z,6.97
2023-01-11T16:23:03.392Z,6.84
2023-01-11T16:28:05.947Z,7.01
2023-01-11T16:33:21.624Z,7.12
2023-01-11T16:38:23.578Z,7.01
2023-01-11T16:43:29.621Z,6.90
2023-01-11T16:48:31.050Z,6.88
2023-01-11T16:53:43.529Z,6.86
2023-01-11T16:59:04.809Z,6.84
2023-01-11T17:04:10.075Z,6.89
2023-01-11T17:09:21.149Z,7.08
2023-01-11T17:14:47.647Z,7.06
2023-01-11T17:19:50.674Z,7.08
2023-01-11T17:24:56.375Z,7.18
2023-01-11T17:29:58.690Z,7.19
2023-01-11T17:35:04.218Z,7.12
2023-01-11T17:40:19.447Z,7.18
2023-01-11T17:45:25.227Z,7.33
2023-01-11T17:50:32.770Z,7.34
2023-01-11T17:55:34.927Z,7.20
2023-01-11T18:00:36.517Z,7.14
2023-01-11T18:05:38.045Z,7.19
2023-01-11T18:10:40.834Z,7.21
2023-01-11T18:15:47.147Z,7.32
2023-01-11T18:20:48.604Z,7.36
2023-01-11T18:25:50.781Z,7.58
2023-01-11T18:30:58.343Z,7.55
2023-01-11T18:36:03.138Z,7.66
2023-01-11T18:41:26.528Z,7.68
2023-01-11T18:46:28.110Z,7.47
2023-01-11T18:51:39.510Z,7.45
2023-01-11T18:56:40.937Z,7.50
2023-01-11T19:01:54.408Z,7.47
2023-01-11T19:07:00.234Z,7.45
2023-01-11T19:12:01.876Z,7.67
2023-01-11T19:17:04.609Z,7.65
2023-01-11T19:22:06.642Z,7.80
2023-01-11T19:27:08.217Z,7.85
2023-01-11T19:32:09.773Z,7.90
2023-01-11T19:37:11.198Z,7.97
2023-01-11T19:42:12.751Z,7.95
2023-01-11T19:47:17.162Z,7.99
2023-01-11T19:52:19.125Z,7.92
2023-01-11T19:57:21.122Z,7.84
2023-01-11T20:02:22.644Z,7.81
2023-01-11T20:07:24.102Z,7.66
2023-01-11T20:12:25.619Z,7.67
2023-01-11T20:17:28.246Z,7.82
2023-01-11T20:22:29.756Z,7.81
2023-01-11T20:27:31.243Z,7.76
2023-01-11T20:32:41.442Z,7.87
2023-01-11T20:37:43.502Z,7.66
2023-01-11T20:42:44.923Z,7.77
2023-01-11T20:47:46.329Z,7.58
2023-01-11T20:52:51.471Z,7.71
2023-01-11T20:57:52.983Z,7.60
2023-01-11T21:02:54.410Z,7.92
2023-01-11T21:07:55.948Z,7.83
2023-01-11T21:17:59.216Z,7.80
2023-01-11T21:23:00.700Z,7.63
2023-01-11T21:28:03.128Z,7.73
2023-01-11T21:33:04.541Z,7.64
2023-01-11T21:38:06.041Z,7.53
2023-01-11T21:43:07.787Z,7.55
2023-01-11T21:48:09.223Z,7.75
2023-01-11T21:53:10.656Z,7.57
2023-01-11T21:58:12.139Z,7.50
2023-01-11T22:03:13.573Z,7.63
2023-01-11T22:08:14.983Z,7.70
2023-01-11T22:13:16.404Z,7.72
2023-01-11T22:18:17.829Z,7.69
2023-01-11T22:23:19.254Z,7.61
2023-01-11T22:28:20.701Z,7.63
2023-01-11T22:33:23.902Z,7.53
2023-01-11T22:38:25.343Z,7.59
2023-01-11T22:43:26.753Z,7.60
2023-01-11T22:48:28.677Z,7.70
2023-01-11T22:53:30.093Z,7.64
2023-01-11T22:58:31.577Z,7.66
2023-01-11T23:03:33.030Z,7.72
2023-01-11T23:08:40.865Z,7.77
2023-01-11T23:13:58.796Z,7.69
2023-01-11T23:19:00.802Z,7.75
2023-01-11T23:24:02.999Z,7.81
2023-01-11T23:29:05.085Z,7.95
2023-01-11T23:34:08.399Z,7.92
2023-01-11T23:39:15.613Z,7.82
2023-01-11T23:44:17.409Z,7.87
2023-01-11T23:49:18.874Z,7.78
2023-01-11T23:54:20.705Z,7.75
2023-01-11T23:59:22.347Z,7.86
